| time (UTC) | temp F | wind direction | speed knots | gust knots | rain 1hr in | rain 24hr in | rain mn in | humidity % | barometer mb |
| 20260508075206 | 42 | 11 | 0.9 | 0.9 | 0.00 | 0.00 | 0.00 | 62 | 1026.6 |
| 20260508074703 | 42 | 19 | 1.7 | 2.6 | 0.00 | 0.00 | 0.00 | 62 | 1026.8 |
| 20260508074200 | 43 | 28 | 1.7 | 2.6 | 0.00 | 0.00 | 0.00 | 63 | 1026.7 |
| 20260508073657 | 43 | 17 | 1.7 | 2.6 | 0.00 | 0.00 | 0.00 | 62 | 1026.7 |
| 20260508073155 | 43 | 11 | 3.5 | 2.6 | 0.00 | 0.00 | 0.00 | 62 | 1027.1 |
| 20260508072650 | 43 | 14 | 2.6 | 2.6 | 0.00 | 0.00 | 0.00 | 62 | 1027.1 |
| 20260508072148 | 43 | 11 | 0.9 | 0.9 | 0.00 | 0.00 | 0.00 | 61 | 1027.1 |
| 20260508071645 | 43 | 12 | 1.7 | 1.7 | 0.00 | 0.00 | 0.00 | 60 | 1027.1 |
| 20260508071143 | 44 | 17 | 0.9 | 0.9 | 0.00 | 0.00 | 0.00 | 60 | 1027.5 |
| 20260508070640 | 44 | 11 | 0.9 | 1.7 | 0.00 | 0.00 | 0.00 | 59 | 1027.0 |
| 20260508070139 | 44 | 22 | 1.7 | 1.7 | 0.00 | 0.00 | 0.00 | 58 | 1027.1 |
| 20260508065636 | 44 | 9 | 0.0 | 0.0 | 0.00 | 0.00 | 0.00 | 58 | 1027.2 |
| 20260508065134 | 43 | 347 | 0.9 | 0.9 | 0.00 | 0.00 | 0.00 | 60 | 1027.2 |
| 20260508064631 | 43 | 319 | 0.0 | 0.0 | 0.00 | 0.00 | 0.00 | 60 | 1027.0 |
| 20260508064129 | 43 | 325 | 0.0 | 0.0 | 0.00 | 0.00 | 0.00 | 59 | 1026.8 |
| 20260508063626 | 43 | 325 | 0.0 | 0.0 | 0.00 | 0.00 | 0.00 | 59 | 1027.1 |
| 20260508063124 | 43 | 325 | 0.0 | 0.9 | 0.00 | 0.00 | 0.00 | 59 | 1027.0 |
| 20260508062621 | 44 | 325 | 0.0 | 0.0 | 0.00 | 0.00 | 0.00 | 59 | 1027.0 |
| 20260508062118 | 43 | 280 | 0.9 | 0.9 | 0.00 | 0.00 | 0.00 | 59 | 1027.2 |
| 20260508061615 | 43 | 335 | 0.0 | 0.0 | 0.00 | 0.00 | 0.00 | 60 | 1027.4 |
| 20260508061113 | 43 | 335 | 0.9 | 0.9 | 0.00 | 0.00 | 0.00 | 61 | 1027.2 |
| 20260508060609 | 43 | 335 | 0.0 | 0.0 | 0.00 | 0.00 | 0.00 | 62 | 1027.0 |
| 20260508060107 | 43 | 331 | 0.0 | 0.0 | 0.00 | 0.00 | 0.00 | 62 | 1027.0 |
| 20260508055602 | 43 | 22 | 0.0 | 0.0 | 0.00 | 0.00 | 0.00 | 63 | 1026.8 |
| 20260508055059 | 43 | 19 | 0.0 | 0.0 | 0.00 | 0.00 | 0.00 | 61 | 1027.0 |
| 20260508054556 | 43 | 19 | 0.0 | 0.0 | 0.00 | 0.00 | 0.00 | 64 | 1027.2 |
| 20260508054053 | 43 | 20 | 0.0 | 0.9 | 0.00 | 0.00 | 0.00 | 65 | 1027.0 |
| 20260508053549 | 43 | 15 | 0.0 | 0.0 | 0.00 | 0.00 | 0.00 | 63 | 1027.2 |
| 20260508053048 | 43 | 15 | 0.0 | 0.0 | 0.00 | 0.00 | 0.00 | 64 | 1027.0 |
| 20260508052545 | 43 | 17 | 0.0 | 0.0 | 0.00 | 0.00 | 0.00 | 63 | 1027.0 |
| 20260508052042 | 43 | 16 | 0.0 | 0.0 | 0.00 | 0.00 | 0.00 | 65 | 1026.8 |
| 20260508051538 | 43 | 5 | 0.9 | 0.9 | 0.00 | 0.00 | 0.00 | 64 | 1027.0 |
| 20260508051033 | 43 | 7 | 1.7 | 1.7 | 0.00 | 0.00 | 0.00 | 66 | 1027.0 |
| 20260508050530 | 42 | 357 | 0.9 | 0.9 | 0.00 | 0.00 | 0.00 | 69 | 1027.1 |
| 20260508050027 | 41 | 357 | 0.0 | 0.0 | 0.00 | 0.00 | 0.00 | 71 | 1026.8 |
| 20260508045523 | 40 | 356 | 0.0 | 0.0 | 0.00 | 0.00 | 0.00 | 77 | 1026.8 |
| 20260508045021 | 39 | 356 | 0.0 | 0.0 | 0.00 | 0.00 | 0.00 | 80 | 1026.8 |
| 20260508044518 | 39 | 356 | 0.0 | 0.0 | 0.00 | 0.00 | 0.00 | 86 | 1026.7 |
| 20260508044014 | 39 | 356 | 0.0 | 0.0 | 0.00 | 0.00 | 0.00 | 88 | 1026.4 |
| 20260508043511 | 39 | 356 | 0.0 | 0.0 | 0.00 | 0.00 | 0.00 | 88 | 1026.7 |
| 20260508043008 | 39 | 356 | 0.0 | 0.0 | 0.00 | 0.00 | 0.00 | 89 | 1026.8 |
| 20260508042505 | 39 | 356 | 0.0 | 0.0 | 0.00 | 0.00 | 0.00 | 88 | 1027.0 |
| 20260508042002 | 39 | 356 | 0.0 | 0.0 | 0.00 | 0.00 | 0.00 | 87 | 1026.7 |
| 20260508041458 | 39 | 356 | 0.0 | 0.0 | 0.00 | 0.00 | 0.00 | 87 | 1026.8 |
| 20260508040955 | 39 | 356 | 0.0 | 0.0 | 0.00 | 0.00 | 0.00 | 87 | 1026.7 |
| 20260508040452 | 39 | 356 | 0.0 | 0.0 | 0.00 | 0.00 | 0.00 | 88 | 1027.0 |
| 20260508035950 | 39 | 356 | 0.0 | 0.0 | 0.00 | 0.00 | 0.00 | 87 | 1026.8 |
| 20260508035446 | 39 | 356 | 0.0 | 0.0 | 0.00 | 0.00 | 0.00 | 88 | 1027.0 |
| 20260508034943 | 40 | 356 | 0.0 | 0.0 | 0.00 | 0.00 | 0.00 | 85 | 1026.7 |
| 20260508034441 | 40 | 356 | 0.0 | 0.0 | 0.00 | 0.00 | 0.00 | 84 | 1026.7 |
| 20260508033937 | 40 | 356 | 0.0 | 0.0 | 0.00 | 0.00 | 0.00 | 86 | 1026.7 |
| 20260508033436 | 40 | 356 | 0.0 | 0.0 | 0.00 | 0.00 | 0.00 | 82 | 1026.6 |
| 20260508032932 | 40 | 357 | 0.0 | 0.0 | 0.00 | 0.00 | 0.00 | 84 | 1026.7 |
| 20260508032430 | 40 | 355 | 1.7 | 1.7 | 0.00 | 0.00 | 0.00 | 84 | 1026.7 |
| 20260508031926 | 39 | 304 | 0.9 | 0.9 | 0.00 | 0.00 | 0.00 | 87 | 1026.6 |
| 20260508031424 | 39 | 301 | 0.0 | 0.0 | 0.00 | 0.00 | 0.00 | 88 | 1026.3 |
| 20260508030919 | 39 | 301 | 0.9 | 0.9 | 0.00 | 0.00 | 0.00 | 90 | 1026.6 |
| 20260508030417 | 39 | 296 | 0.9 | 0.9 | 0.00 | 0.00 | 0.00 | 90 | 1026.4 |
| 20260508025914 | 39 | 295 | 0.0 | 0.0 | 0.00 | 0.00 | 0.00 | 89 | 1026.3 |
| 20260508025410 | 39 | 295 | 0.0 | 0.0 | 0.00 | 0.00 | 0.00 | 88 | 1026.3 |
| 20260508024907 | 39 | 295 | 0.0 | 0.0 | 0.00 | 0.00 | 0.00 | 88 | 1026.2 |
| 20260508024404 | 40 | 295 | 0.0 | 0.0 | 0.00 | 0.00 | 0.00 | 88 | 1026.2 |
| 20260508023901 | 40 | 295 | 0.0 | 0.0 | 0.00 | 0.00 | 0.00 | 87 | 1026.4 |
| 20260508023357 | 40 | 295 | 0.0 | 0.9 | 0.00 | 0.00 | 0.00 | 88 | 1026.4 |
| 20260508022854 | 40 | 296 | 0.0 | 0.0 | 0.00 | 0.00 | 0.00 | 88 | 1026.3 |
| 20260508022350 | 40 | 295 | 0.0 | 0.0 | 0.00 | 0.00 | 0.00 | 89 | 1026.2 |
| 20260508021847 | 40 | 295 | 0.0 | 0.0 | 0.00 | 0.00 | 0.00 | 88 | 1026.3 |
| 20260508021343 | 40 | 296 | 0.0 | 0.0 | 0.00 | 0.00 | 0.00 | 88 | 1026.4 |
| 20260508020839 | 40 | 296 | 0.0 | 0.0 | 0.00 | 0.00 | 0.00 | 89 | 1026.3 |
| 20260508020337 | 40 | 293 | 0.0 | 0.0 | 0.00 | 0.00 | 0.00 | 90 | 1026.3 |
| 20260508015834 | 39 | 293 | 0.0 | 0.0 | 0.00 | 0.00 | 0.00 | 89 | 1026.2 |
| 20260508015332 | 40 | 293 | 0.0 | 0.0 | 0.00 | 0.00 | 0.00 | 89 | 1026.0 |
| 20260508014828 | 40 | 293 | 0.0 | 0.0 | 0.00 | 0.00 | 0.00 | 88 | 1026.3 |
| 20260508014326 | 40 | 293 | 0.0 | 0.0 | 0.00 | 0.00 | 0.00 | 86 | 1026.0 |
| 20260508013826 | 40 | 293 | 0.0 | 0.0 | 0.00 | 0.00 | 0.00 | 85 | 1026.6 |
| 20260508013323 | 41 | 293 | 0.0 | 0.0 | 0.00 | 0.00 | 0.00 | 84 | 1026.6 |
| 20260508012820 | 41 | 293 | 0.0 | 0.0 | 0.00 | 0.00 | 0.00 | 83 | 1026.6 |
| 20260508012317 | 42 | 294 | 0.0 | 0.0 | 0.00 | 0.00 | 0.00 | 80 | 1026.7 |
| 20260508011815 | 43 | 25 | 0.0 | 0.0 | 0.00 | 0.00 | 0.00 | 75 | 1027.1 |
| 20260508011312 | 44 | 214 | 0.9 | 0.9 | 0.00 | 0.00 | 0.00 | 71 | 1026.8 |
| 20260508010809 | 46 | 287 | 0.9 | 0.9 | 0.00 | 0.00 | 0.00 | 67 | 1026.6 |
| 20260508010307 | 47 | 306 | 0.0 | 0.0 | 0.00 | 0.00 | 0.00 | 57 | 1026.2 |
| 20260508005804 | 48 | 303 | 0.9 | 2.6 | 0.00 | 0.00 | 0.00 | 53 | 1025.9 |
| 20260508005300 | 48 | 218 | 0.9 | 0.9 | 0.00 | 0.00 | 0.00 | 52 | 1026.0 |
| 20260508004756 | 48 | 23 | 1.7 | 1.7 | 0.00 | 0.00 | 0.00 | 53 | 1026.0 |
| 20260508004253 | 48 | 142 | 0.9 | 0.9 | 0.00 | 0.00 | 0.00 | 53 | 1026.0 |
| 20260508003749 | 48 | 145 | 1.7 | 2.6 | 0.00 | 0.00 | 0.00 | 53 | 1026.3 |
| 20260508003247 | 47 | 163 | 0.9 | 0.9 | 0.00 | 0.00 | 0.00 | 54 | 1025.7 |
| 20260508002743 | 48 | 261 | 1.7 | 1.7 | 0.00 | 0.00 | 0.00 | 55 | 1026.0 |
| 20260508002241 | 48 | 352 | 2.6 | 2.6 | 0.00 | 0.00 | 0.00 | 52 | 1026.0 |
| 20260508001736 | 49 | 248 | 2.6 | 2.6 | 0.00 | 0.00 | 0.00 | 50 | 1025.8 |
| 20260508001232 | 51 | 26 | 0.9 | 1.7 | 0.00 | 0.00 | 0.00 | 49 | 1025.5 |
| 20260508000728 | 51 | 357 | 1.7 | 2.6 | 0.00 | 0.00 | 0.00 | 42 | 1025.4 |
| 20260508000227 | 51 | 77 | 0.9 | 0.9 | 0.00 | 0.00 | 0.00 | 42 | 1025.1 |
| 20260507235722 | 52 | 260 | 0.0 | 0.0 | 0.00 | 0.00 | 0.00 | 41 | 1025.0 |
| 20260507235219 | 53 | 305 | 0.9 | 2.6 | 0.00 | 0.00 | 0.00 | 41 | 1024.7 |
| 20260507234716 | 53 | 16 | 2.6 | 2.6 | 0.00 | 0.00 | 0.00 | 38 | 1024.9 |
| 20260507234213 | 53 | 227 | 0.9 | 0.9 | 0.00 | 0.00 | 0.00 | 40 | 1024.9 |
| 20260507233710 | 53 | 313 | 1.7 | 2.6 | 0.00 | 0.00 | 0.00 | 39 | 1024.9 |
| 20260507233208 | 53 | 287 | 0.0 | 0.0 | 0.00 | 0.00 | 0.00 | 41 | 1025.0 |
| 20260507232704 | 53 | 229 | 0.9 | 0.9 | 0.00 | 0.00 | 0.00 | 40 | 1025.1 |
| 20260507232202 | 52 | 150 | 1.7 | 1.7 | 0.00 | 0.00 | 0.00 | 41 | 1025.1 |
| 20260507231658 | 52 | 303 | 0.9 | 0.9 | 0.00 | 0.00 | 0.00 | 41 | 1025.0 |
| 20260507231155 | 53 | 253 | 0.9 | 0.9 | 0.00 | 0.00 | 0.00 | 42 | 1025.0 |
| 20260507230652 | 52 | 275 | 0.0 | 0.0 | 0.00 | 0.00 | 0.00 | 42 | 1025.0 |
| 20260507230149 | 52 | 144 | 0.0 | 0.0 | 0.00 | 0.00 | 0.00 | 41 | 1025.4 |
| 20260507225648 | 52 | 250 | 0.0 | 0.9 | 0.00 | 0.00 | 0.00 | 43 | 1025.5 |
| 20260507225146 | 53 | 283 | 0.9 | 0.9 | 0.00 | 0.00 | 0.00 | 40 | 1025.1 |
| 20260507224641 | 53 | 332 | 0.9 | 1.7 | 0.00 | 0.00 | 0.00 | 39 | 1025.3 |
| 20260507224138 | 55 | 292 | 0.9 | 1.7 | 0.00 | 0.00 | 0.00 | 37 | 1025.4 |
| 20260507223634 | 56 | 328 | 0.0 | 0.0 | 0.00 | 0.00 | 0.00 | 35 | 1025.1 |
| 20260507223131 | 57 | 12 | 2.6 | 3.5 | 0.00 | 0.00 | 0.00 | 34 | 1025.3 |
| 20260507222628 | 57 | 201 | 0.9 | 1.7 | 0.00 | 0.00 | 0.00 | 36 | 1025.4 |
| 20260507222124 | 56 | 289 | 0.9 | 1.7 | 0.00 | 0.00 | 0.00 | 34 | 1025.4 |
| 20260507221620 | 55 | 246 | 0.9 | 1.7 | 0.00 | 0.00 | 0.00 | 36 | 1025.4 |
| 20260507221117 | 57 | 176 | 0.9 | 0.9 | 0.00 | 0.00 | 0.00 | 33 | 1025.7 |
| 20260507220614 | 57 | 239 | 0.0 | 0.0 | 0.00 | 0.00 | 0.00 | 36 | 1025.4 |
| 20260507220112 | 56 | 160 | 0.9 | 0.9 | 0.00 | 0.00 | 0.00 | 36 | 1025.4 |
| 20260507215608 | 56 | 348 | 1.7 | 1.7 | 0.00 | 0.00 | 0.00 | 36 | 1025.4 |
| 20260507215106 | 57 | 269 | 0.9 | 1.7 | 0.00 | 0.00 | 0.00 | 36 | 1025.7 |
| 20260507214603 | 57 | 86 | 1.7 | 1.7 | 0.00 | 0.00 | 0.00 | 36 | 1025.7 |
| 20260507214059 | 55 | 14 | 0.9 | 1.7 | 0.00 | 0.00 | 0.00 | 37 | 1025.8 |
| 20260507213555 | 55 | 302 | 0.9 | 0.9 | 0.00 | 0.00 | 0.00 | 38 | 1025.9 |
| 20260507213052 | 55 | 222 | 0.0 | 0.9 | 0.00 | 0.00 | 0.00 | 37 | 1026.2 |
| 20260507212548 | 55 | 283 | 0.9 | 1.7 | 0.00 | 0.00 | 0.00 | 37 | 1026.3 |
| 20260507212045 | 54 | 172 | 1.7 | 1.7 | 0.00 | 0.00 | 0.00 | 40 | 1025.9 |
| 20260507211542 | 56 | 352 | 2.6 | 2.6 | 0.00 | 0.00 | 0.00 | 37 | 1026.3 |
| 20260507211038 | 56 | 141 | 2.6 | 5.2 | 0.00 | 0.00 | 0.00 | 37 | 1026.2 |
| 20260507210536 | 55 | 132 | 1.7 | 2.6 | 0.00 | 0.00 | 0.00 | 39 | 1026.2 |
| 20260507210032 | 55 | 170 | 1.7 | 3.5 | 0.00 | 0.00 | 0.00 | 39 | 1026.0 |
| 20260507205529 | 55 | 252 | 0.9 | 1.7 | 0.00 | 0.00 | 0.00 | 38 | 1026.4 |
| 20260507205025 | 55 | 324 | 2.6 | 2.6 | 0.00 | 0.00 | 0.00 | 37 | 1026.8 |
| 20260507204521 | 55 | 187 | 0.9 | 1.7 | 0.00 | 0.00 | 0.00 | 42 | 1026.7 |
| 20260507204019 | 55 | 329 | 0.9 | 0.9 | 0.00 | 0.00 | 0.00 | 39 | 1026.8 |
| 20260507203517 | 55 | 135 | 1.7 | 2.6 | 0.00 | 0.00 | 0.00 | 41 | 1026.6 |
| 20260507203014 | 55 | 237 | 4.3 | 6.1 | 0.00 | 0.00 | 0.00 | 37 | 1026.7 |
| 20260507202509 | 55 | 241 | 0.0 | 0.9 | 0.00 | 0.00 | 0.00 | 40 | 1026.7 |
| 20260507202006 | 55 | 284 | 3.5 | 6.1 | 0.00 | 0.00 | 0.00 | 39 | 1026.8 |
| 20260507201502 | 55 | 335 | 1.7 | 2.6 | 0.00 | 0.00 | 0.00 | 40 | 1026.8 |
| 20260507200958 | 55 | 164 | 0.9 | 1.7 | 0.00 | 0.00 | 0.00 | 40 | 1027.0 |
| 20260507200454 | 55 | 319 | 2.6 | 5.2 | 0.00 | 0.00 | 0.00 | 38 | 1027.2 |
| 20260507195949 | 54 | 158 | 1.7 | 2.6 | 0.00 | 0.00 | 0.00 | 41 | 1026.8 |
| 20260507195448 | 54 | 126 | 5.2 | 6.1 | 0.00 | 0.00 | 0.00 | 40 | 1027.2 |
| 20260507194945 | 53 | 9 | 0.9 | 0.9 | 0.00 | 0.00 | 0.00 | 43 | 1027.4 |
| 20260507194441 | 53 | 222 | 0.9 | 0.9 | 0.00 | 0.00 | 0.00 | 45 | 1027.2 |
| 20260507193937 | 53 | 34 | 1.7 | 1.7 | 0.00 | 0.00 | 0.00 | 42 | 1027.5 |
| 20260507193434 | 53 | 197 | 0.0 | 0.9 | 0.00 | 0.00 | 0.00 | 43 | 1027.4 |
| 20260507192931 | 54 | 2 | 2.6 | 3.5 | 0.00 | 0.00 | 0.00 | 39 | 1027.4 |
| 20260507192427 | 54 | 295 | 1.7 | 1.7 | 0.00 | 0.00 | 0.00 | 41 | 1027.2 |
| 20260507191924 | 54 | 228 | 1.7 | 1.7 | 0.00 | 0.00 | 0.00 | 40 | 1027.7 |
| 20260507191420 | 53 | 206 | 0.0 | 0.9 | 0.00 | 0.00 | 0.00 | 41 | 1027.5 |
| 20260507190917 | 53 | 98 | 0.9 | 0.9 | 0.00 | 0.00 | 0.00 | 43 | 1027.7 |
| 20260507190415 | 52 | 2 | 1.7 | 2.6 | 0.00 | 0.00 | 0.00 | 46 | 1027.5 |
| 20260507185914 | 53 | 309 | 1.7 | 2.6 | 0.00 | 0.00 | 0.00 | 44 | 1027.5 |
| 20260507185410 | 53 | 136 | 0.0 | 0.9 | 0.00 | 0.00 | 0.00 | 45 | 1027.6 |
| 20260507184907 | 52 | 352 | 1.7 | 1.7 | 0.00 | 0.00 | 0.00 | 42 | 1027.7 |
| 20260507184405 | 52 | 309 | 2.6 | 2.6 | 0.00 | 0.00 | 0.00 | 45 | 1027.6 |
| 20260507183902 | 51 | 232 | 0.9 | 0.9 | 0.00 | 0.00 | 0.00 | 52 | 1027.6 |
| 20260507183359 | 49 | 330 | 0.9 | 0.9 | 0.00 | 0.00 | 0.00 | 49 | 1027.7 |
| 20260507182856 | 47 | 276 | 0.9 | 1.7 | 0.00 | 0.00 | 0.00 | 51 | 1027.9 |
| 20260507182351 | 48 | 6 | 1.7 | 2.6 | 0.00 | 0.00 | 0.00 | 47 | 1028.0 |
| 20260507181848 | 48 | 182 | 0.0 | 0.9 | 0.00 | 0.00 | 0.00 | 48 | 1027.9 |
| 20260507181344 | 48 | 41 | 0.0 | 0.9 | 0.00 | 0.00 | 0.00 | 49 | 1027.9 |
| 20260507180841 | 47 | 11 | 1.7 | 2.6 | 0.00 | 0.00 | 0.00 | 51 | 1028.0 |
| 20260507180338 | 46 | 26 | 0.0 | 0.0 | 0.00 | 0.00 | 0.00 | 57 | 1028.0 |
| 20260507175834 | 45 | 12 | 0.9 | 1.7 | 0.00 | 0.00 | 0.00 | 52 | 1028.1 |
| 20260507175331 | 44 | 19 | 0.9 | 0.9 | 0.00 | 0.00 | 0.00 | 56 | 1028.3 |
| 20260507174828 | 45 | 2 | 0.9 | 0.9 | 0.00 | 0.00 | 0.00 | 54 | 1028.1 |
| 20260507174326 | 44 | 283 | 2.6 | 2.6 | 0.00 | 0.00 | 0.00 | 53 | 1028.1 |
| 20260507173823 | 45 | 26 | 0.9 | 0.9 | 0.00 | 0.00 | 0.00 | 53 | 1028.4 |
| 20260507173320 | 45 | 15 | 2.6 | 2.6 | 0.00 | 0.00 | 0.00 | 53 | 1028.3 |
| 20260507172816 | 46 | 337 | 1.7 | 2.6 | 0.00 | 0.00 | 0.00 | 53 | 1028.3 |
| 20260507172313 | 46 | 302 | 0.0 | 0.9 | 0.00 | 0.00 | 0.00 | 57 | 1028.3 |
| 20260507171809 | 45 | 11 | 3.5 | 6.1 | 0.00 | 0.00 | 0.00 | 55 | 1028.4 |
| 20260507171306 | 44 | 7 | 0.0 | 0.0 | 0.00 | 0.00 | 0.00 | 58 | 1028.4 |
| 20260507170803 | 42 | 12 | 0.0 | 0.0 | 0.00 | 0.00 | 0.00 | 62 | 1028.5 |
| 20260507170300 | 42 | 18 | 1.7 | 2.6 | 0.00 | 0.00 | 0.00 | 55 | 1028.5 |
| 20260507165755 | 42 | 11 | 3.5 | 3.5 | 0.00 | 0.00 | 0.00 | 59 | 1028.5 |
| 20260507165252 | 41 | 19 | 2.6 | 3.5 | 0.00 | 0.00 | 0.00 | 60 | 1028.4 |
| 20260507164748 | 40 | 13 | 1.7 | 1.7 | 0.00 | 0.00 | 0.00 | 62 | 1028.7 |
| 20260507164245 | 39 | 18 | 2.6 | 3.5 | 0.00 | 0.00 | 0.00 | 61 | 1028.5 |
| 20260507163742 | 39 | 44 | 1.7 | 1.7 | 0.00 | 0.00 | 0.00 | 59 | 1028.5 |
| 20260507163240 | 39 | 353 | 6.1 | 9.6 | 0.00 | 0.00 | 0.00 | 60 | 1028.7 |
| 20260507162736 | 38 | 75 | 3.5 | 5.2 | 0.00 | 0.00 | 0.00 | 62 | 1028.5 |
| 20260507162232 | 39 | 33 | 6.1 | 7.0 | 0.00 | 0.00 | 0.00 | 61 | 1028.5 |
| 20260507161729 | 38 | 344 | 5.2 | 6.1 | 0.00 | 0.00 | 0.00 | 62 | 1028.5 |
| 20260507161225 | 38 | 29 | 0.9 | 0.9 | 0.00 | 0.00 | 0.00 | 60 | 1028.5 |
| 20260507160721 | 38 | 25 | 4.3 | 5.2 | 0.00 | 0.00 | 0.00 | 58 | 1028.8 |
| 20260507160218 | 38 | 15 | 1.7 | 1.7 | 0.00 | 0.00 | 0.00 | 63 | 1028.8 |
| 20260507155714 | 38 | 19 | 0.9 | 0.9 | 0.00 | 0.00 | 0.00 | 60 | 1028.9 |
| 20260507155210 | 37 | 14 | 1.7 | 2.6 | 0.00 | 0.00 | 0.00 | 61 | 1028.9 |
| 20260507154706 | 37 | 64 | 0.0 | 0.0 | 0.00 | 0.00 | 0.00 | 67 | 1028.9 |
| 20260507154205 | 38 | 61 | 0.0 | 0.0 | 0.00 | 0.00 | 0.00 | 61 | 1028.9 |
| 20260507153701 | 37 | 61 | 0.0 | 0.0 | 0.00 | 0.00 | 0.00 | 69 | 1029.0 |
| 20260507153157 | 37 | 61 | 0.0 | 0.0 | 0.00 | 0.00 | 0.00 | 67 | 1029.3 |
| 20260507152654 | 37 | 61 | 0.0 | 0.0 | 0.00 | 0.00 | 0.00 | 65 | 1029.3 |
| 20260507152150 | 36 | 61 | 0.0 | 0.0 | 0.00 | 0.00 | 0.00 | 69 | 1029.6 |
| 20260507151646 | 36 | 57 | 0.9 | 1.7 | 0.00 | 0.00 | 0.00 | 69 | 1029.6 |
| 20260507151143 | 35 | 53 | 0.0 | 0.9 | 0.00 | 0.00 | 0.00 | 68 | 1029.6 |
| 20260507150640 | 34 | 53 | 0.0 | 0.0 | 0.00 | 0.00 | 0.00 | 70 | 1029.8 |
| 20260507150136 | 33 | 53 | 0.0 | 0.0 | 0.00 | 0.00 | 0.00 | 71 | 1029.8 |
| 20260507145632 | 33 | 53 | 0.0 | 0.0 | 0.00 | 0.00 | 0.00 | 68 | 1029.8 |
| 20260507145130 | 33 | 50 | 0.0 | 0.0 | 0.00 | 0.00 | 0.00 | 70 | 1030.0 |
| 20260507144626 | 33 | 34 | 0.0 | 0.0 | 0.00 | 0.00 | 0.00 | 69 | 1030.2 |
| 20260507144124 | 33 | 35 | 0.0 | 0.0 | 0.00 | 0.00 | 0.00 | 69 | 1030.2 |
| 20260507143620 | 32 | 35 | 0.9 | 0.9 | 0.00 | 0.00 | 0.00 | 74 | 1030.2 |
| 20260507143118 | 31 | 31 | 0.9 | 0.9 | 0.00 | 0.00 | 0.00 | 72 | 1030.1 |
| 20260507142613 | 31 | 19 | 0.0 | 0.0 | 0.00 | 0.00 | 0.00 | 74 | 1030.0 |
| 20260507142110 | 32 | 18 | 0.0 | 0.0 | 0.00 | 0.00 | 0.00 | 69 | 1030.2 |
| 20260507141606 | 33 | 3 | 0.0 | 0.0 | 0.00 | 0.00 | 0.00 | 64 | 1030.1 |
| 20260507141103 | 33 | 1 | 0.0 | 0.0 | 0.00 | 0.00 | 0.00 | 65 | 1030.2 |
| 20260507140559 | 32 | 1 | 0.0 | 0.0 | 0.00 | 0.00 | 0.00 | 71 | 1030.4 |
| 20260507140057 | 29 | 1 | 0.0 | 0.0 | 0.00 | 0.00 | 0.00 | 74 | 1030.2 |
| 20260507135554 | 28 | 0 | 0.0 | 0.0 | 0.00 | 0.00 | 0.00 | 74 | 1030.4 |
| 20260507135051 | 29 | 1 | 0.0 | 0.0 | 0.00 | 0.00 | 0.00 | 75 | 1030.2 |
| 20260507134548 | 29 | 0 | 0.0 | 0.0 | 0.00 | 0.00 | 0.00 | 70 | 1030.1 |
| 20260507134043 | 28 | 0 | 0.0 | 0.0 | 0.00 | 0.00 | 0.00 | 75 | 1030.4 |
| 20260507133540 | 27 | 0 | 0.0 | 0.0 | 0.00 | 0.00 | 0.00 | 73 | 1030.4 |
| 20260507133038 | 27 | 359 | 0.0 | 0.0 | 0.00 | 0.00 | 0.00 | 76 | 1030.5 |
| 20260507132534 | 27 | 358 | 0.0 | 0.0 | 0.00 | 0.00 | 0.00 | 77 | 1030.4 |
| 20260507132031 | 25 | 358 | 0.0 | 0.0 | 0.00 | 0.00 | 0.00 | 78 | 1030.5 |
| 20260507131527 | 24 | 359 | 0.0 | 0.0 | 0.00 | 0.00 | 0.00 | 83 | 1030.7 |
| 20260507131025 | 24 | 359 | 0.0 | 0.0 | 0.00 | 0.00 | 0.00 | 84 | 1030.4 |
| 20260507130522 | 23 | 359 | 0.0 | 0.0 | 0.00 | 0.00 | 0.00 | 88 | 1030.6 |
| 20260507130020 | 22 | 0 | 0.0 | 0.0 | 0.00 | 0.00 | 0.00 | 87 | 1030.6 |
| 20260507125518 | 22 | 0 | 0.0 | 0.0 | 0.00 | 0.00 | 0.00 | 88 | 1030.6 |
| 20260507125015 | 22 | 0 | 0.0 | 0.0 | 0.00 | 0.00 | 0.00 | 89 | 1030.2 |
| 20260507124512 | 21 | 0 | 0.0 | 0.0 | 0.00 | 0.00 | 0.00 | 90 | 1030.2 |
| 20260507124009 | 21 | 0 | 0.0 | 0.0 | 0.00 | 0.00 | 0.00 | 90 | 1030.4 |
| 20260507123507 | 20 | 0 | 0.0 | 0.0 | 0.00 | 0.00 | 0.00 | 90 | 1030.4 |
| 20260507123003 | 20 | 0 | 0.0 | 0.0 | 0.00 | 0.00 | 0.00 | 90 | 1030.2 |
| 20260507122459 | 20 | 0 | 0.0 | 0.0 | 0.00 | 0.00 | 0.00 | 90 | 1030.1 |
| 20260507121955 | 19 | 0 | 0.0 | 0.0 | 0.00 | 0.00 | 0.00 | 91 | 1030.4 |
| 20260507121451 | 19 | 0 | 0.0 | 0.0 | 0.00 | 0.00 | 0.00 | 91 | 1030.0 |
| 20260507120947 | 19 | 0 | 0.0 | 0.0 | 0.00 | 0.00 | 0.00 | 91 | 1030.2 |
| 20260507120443 | 19 | 0 | 0.0 | 0.0 | 0.00 | 0.00 | 0.00 | 91 | 1030.4 |
| 20260507115940 | 19 | 0 | 0.0 | 0.0 | 0.00 | 0.00 | 0.00 | 91 | 1030.2 |
| 20260507115436 | 19 | 0 | 0.0 | 0.0 | 0.00 | 0.00 | 0.00 | 91 | 1030.2 |
| 20260507114932 | 19 | 0 | 0.0 | 0.0 | 0.00 | 0.00 | 0.00 | 91 | 1030.0 |
| 20260507114429 | 19 | 0 | 0.0 | 0.0 | 0.00 | 0.00 | 0.00 | 91 | 1030.2 |
| 20260507113926 | 19 | 0 | 0.0 | 0.0 | 0.00 | 0.00 | 0.00 | 91 | 1030.1 |
| 20260507113423 | 19 | 0 | 0.0 | 0.0 | 0.00 | 0.00 | 0.00 | 91 | 1030.4 |
| 20260507112920 | 19 | 0 | 0.0 | 0.0 | 0.00 | 0.00 | 0.00 | 91 | 1030.2 |
| 20260507112418 | 20 | 0 | 0.0 | 0.0 | 0.00 | 0.00 | 0.00 | 91 | 1030.1 |
| 20260507111915 | 19 | 0 | 0.0 | 0.0 | 0.00 | 0.00 | 0.00 | 91 | 1030.1 |
| 20260507111412 | 20 | 0 | 0.0 | 0.0 | 0.00 | 0.00 | 0.00 | 90 | 1029.8 |
| 20260507110908 | 20 | 0 | 0.0 | 0.0 | 0.00 | 0.00 | 0.00 | 89 | 1029.7 |
| 20260507110404 | 20 | 0 | 0.0 | 0.0 | 0.00 | 0.00 | 0.00 | 88 | 1029.8 |
| 20260507105901 | 21 | 0 | 0.0 | 0.0 | 0.00 | 0.00 | 0.00 | 87 | 1029.8 |
| 20260507105358 | 21 | 0 | 0.0 | 0.0 | 0.00 | 0.00 | 0.00 | 87 | 1030.0 |
| 20260507104855 | 21 | 0 | 0.0 | 0.0 | 0.00 | 0.00 | 0.00 | 87 | 1029.8 |
| 20260507104351 | 21 | 0 | 0.0 | 0.0 | 0.00 | 0.00 | 0.00 | 87 | 1029.8 |
| 20260507103847 | 21 | 0 | 0.0 | 0.0 | 0.00 | 0.00 | 0.00 | 87 | 1030.0 |
| 20260507103344 | 21 | 0 | 0.0 | 0.0 | 0.00 | 0.00 | 0.00 | 87 | 1030.0 |
| 20260507102840 | 21 | 0 | 0.0 | 0.0 | 0.00 | 0.00 | 0.00 | 87 | 1029.8 |
| 20260507102337 | 21 | 0 | 0.0 | 0.0 | 0.00 | 0.00 | 0.00 | 87 | 1029.8 |
| 20260507101834 | 21 | 0 | 0.0 | 0.0 | 0.00 | 0.00 | 0.00 | 86 | 1030.1 |
| 20260507101333 | 21 | 0 | 0.0 | 0.0 | 0.00 | 0.00 | 0.00 | 87 | 1029.7 |
| 20260507100831 | 21 | 0 | 0.0 | 0.0 | 0.00 | 0.00 | 0.00 | 89 | 1030.0 |
| 20260507100329 | 21 | 0 | 0.0 | 0.0 | 0.00 | 0.00 | 0.00 | 88 | 1030.1 |
| 20260507095827 | 21 | 0 | 0.0 | 0.0 | 0.00 | 0.00 | 0.00 | 86 | 1030.1 |
| 20260507095323 | 21 | 0 | 0.0 | 0.0 | 0.00 | 0.00 | 0.00 | 86 | 1030.0 |
| 20260507094820 | 22 | 0 | 0.0 | 0.0 | 0.00 | 0.00 | 0.00 | 85 | 1029.8 |
| 20260507094317 | 22 | 0 | 0.0 | 0.0 | 0.00 | 0.00 | 0.00 | 85 | 1030.0 |
| 20260507093814 | 22 | 0 | 0.0 | 0.0 | 0.00 | 0.00 | 0.00 | 84 | 1029.7 |
| 20260507093312 | 22 | 0 | 0.0 | 0.0 | 0.00 | 0.00 | 0.00 | 84 | 1029.8 |
| 20260507092810 | 22 | 0 | 0.0 | 0.0 | 0.00 | 0.00 | 0.00 | 84 | 1029.8 |
| 20260507092307 | 22 | 0 | 0.0 | 0.0 | 0.00 | 0.00 | 0.00 | 84 | 1030.0 |
| 20260507091803 | 22 | 0 | 0.0 | 0.0 | 0.00 | 0.00 | 0.00 | 86 | 1030.0 |
| 20260507091259 | 21 | 0 | 0.0 | 0.0 | 0.00 | 0.00 | 0.00 | 86 | 1030.0 |
| 20260507090759 | 21 | 0 | 0.0 | 0.0 | 0.00 | 0.00 | 0.00 | 87 | 1030.0 |
| 20260507090256 | 22 | 0 | 0.0 | 0.0 | 0.00 | 0.00 | 0.00 | 86 | 1030.0 |
| 20260507085753 | 22 | 0 | 0.0 | 0.0 | 0.00 | 0.00 | 0.00 | 86 | 1030.1 |
| 20260507085250 | 21 | 0 | 0.0 | 0.0 | 0.00 | 0.00 | 0.00 | 87 | 1030.2 |
| 20260507084747 | 21 | 0 | 0.0 | 0.0 | 0.00 | 0.00 | 0.00 | 86 | 1030.2 |
| 20260507084243 | 21 | 0 | 0.0 | 0.0 | 0.00 | 0.00 | 0.00 | 87 | 1030.1 |
| 20260507083741 | 22 | 0 | 0.0 | 0.0 | 0.00 | 0.00 | 0.00 | 87 | 1030.2 |
| 20260507083238 | 22 | 0 | 0.0 | 0.0 | 0.00 | 0.00 | 0.00 | 86 | 1030.2 |
| 20260507082734 | 22 | 0 | 0.0 | 0.0 | 0.00 | 0.00 | 0.00 | 85 | 1030.0 |
| 20260507082229 | 22 | 0 | 0.0 | 0.0 | 0.00 | 0.00 | 0.00 | 83 | 1030.0 |
| 20260507081727 | 22 | 0 | 0.0 | 0.0 | 0.00 | 0.00 | 0.00 | 84 | 1030.1 |
| 20260507081223 | 22 | 0 | 0.0 | 0.0 | 0.00 | 0.00 | 0.00 | 85 | 1030.2 |
| 20260507080719 | 22 | 0 | 0.0 | 0.0 | 0.00 | 0.00 | 0.00 | 86 | 1030.2 |
| 20260507080215 | 23 | 0 | 0.0 | 0.0 | 0.00 | 0.00 | 0.00 | 86 | 1030.1 |
| 20260507075711 | 23 | 0 | 0.0 | 0.0 | 0.00 | 0.00 | 0.00 | 85 | 1030.1 |